createdAt,value
2022-07-25T00:00:54.477Z,7.80
2022-07-25T00:03:11.764Z,6.93
2022-07-25T00:05:37.642Z,7.28
2022-07-25T00:07:55.355Z,7.10
2022-07-25T00:10:12.768Z,7.43
2022-07-25T00:12:29.812Z,7.45
2022-07-25T00:14:46.787Z,6.75
2022-07-25T00:17:03.816Z,7.32
2022-07-25T00:19:21.156Z,7.72
2022-07-25T00:21:38.258Z,7.55
2022-07-25T00:23:55.275Z,7.18
2022-07-25T00:26:13.268Z,7.50
2022-07-25T00:28:30.542Z,7.60
2022-07-25T00:30:48.415Z,7.38
2022-07-25T00:33:05.633Z,7.63
2022-07-25T00:35:22.893Z,7.53
2022-07-25T00:37:40.164Z,7.50
2022-07-25T00:39:58.286Z,7.90
2022-07-25T00:42:15.606Z,8.10
2022-07-25T00:44:33.607Z,7.80
2022-07-25T00:46:50.974Z,7.75
2022-07-25T00:49:08.116Z,7.97
2022-07-25T00:51:26.363Z,7.25
2022-07-25T00:53:43.350Z,7.60
2022-07-25T00:56:00.723Z,7.38
2022-07-25T00:58:17.704Z,7.38
2022-07-25T01:00:34.686Z,7.28
2022-07-25T01:02:52.099Z,7.38
2022-07-25T01:05:09.126Z,7.88
2022-07-25T01:07:29.335Z,7.70
2022-07-25T01:09:47.582Z,7.75
2022-07-25T01:12:04.593Z,7.70
2022-07-25T01:14:22.828Z,7.50
2022-07-25T01:16:40.796Z,7.68
2022-07-25T01:18:58.133Z,8.02
2022-07-25T01:21:15.133Z,7.55
2022-07-25T01:23:32.273Z,7.68
2022-07-25T01:25:50.343Z,8.00
2022-07-25T01:28:08.361Z,7.88
2022-07-25T01:30:26.464Z,7.90
2022-07-25T01:32:43.541Z,8.00
2022-07-25T01:35:00.842Z,7.55
2022-07-25T01:37:18.132Z,7.75
2022-07-25T01:39:36.142Z,7.82
2022-07-25T01:41:54.442Z,8.20
2022-07-25T01:44:12.483Z,7.80
2022-07-25T01:46:30.477Z,8.10
2022-07-25T01:48:47.937Z,7.60
2022-07-25T01:51:08.038Z,7.68
2022-07-25T01:53:28.102Z,7.85
2022-07-25T01:55:45.036Z,7.45
2022-07-25T01:58:03.130Z,7.88
2022-07-25T02:00:20.401Z,7.68
2022-07-25T02:02:37.738Z,7.68
2022-07-25T02:04:54.851Z,7.85
2022-07-25T02:07:11.840Z,8.40
2022-07-25T02:09:28.864Z,7.68
2022-07-25T02:11:46.170Z,7.93
2022-07-25T02:14:04.770Z,7.88
2022-07-25T02:16:29.052Z,8.07
2022-07-25T02:18:46.530Z,7.68
2022-07-25T02:21:13.831Z,7.90
2022-07-25T02:23:32.015Z,8.07
2022-07-25T02:25:49.314Z,8.20
2022-07-25T02:28:06.419Z,7.70
2022-07-25T02:30:24.640Z,8.27
2022-07-25T02:32:42.060Z,8.20
2022-07-25T02:35:00.162Z,8.30
2022-07-25T02:37:17.258Z,8.30
2022-07-25T02:39:34.213Z,7.40
2022-07-25T02:41:51.307Z,7.35
2022-07-25T02:44:08.886Z,7.93
2022-07-25T02:46:26.588Z,8.50
2022-07-25T02:48:44.944Z,7.90
2022-07-25T02:51:01.967Z,7.70
2022-07-25T02:53:39.971Z,7.60
2022-07-25T02:55:57.885Z,8.15
2022-07-25T02:58:15.412Z,8.20
2022-07-25T03:00:32.537Z,8.05
2022-07-25T03:02:50.544Z,8.15
2022-07-25T03:05:07.616Z,8.27
2022-07-25T03:07:24.946Z,8.18
2022-07-25T03:09:44.111Z,7.53
2022-07-25T03:12:01.210Z,7.80
2022-07-25T03:14:18.332Z,7.68
2022-07-25T03:16:36.751Z,8.38
2022-07-25T03:18:54.188Z,7.90
2022-07-25T03:21:12.268Z,8.40
2022-07-25T03:23:29.589Z,7.70
2022-07-25T03:25:47.189Z,7.93
2022-07-25T03:28:04.811Z,7.70
2022-07-25T03:30:21.970Z,8.57
2022-07-25T03:32:39.087Z,7.85
2022-07-25T03:34:56.181Z,8.00
2022-07-25T03:37:13.293Z,8.60
2022-07-25T03:39:30.598Z,8.68
2022-07-25T03:41:47.715Z,7.95
2022-07-25T03:44:05.313Z,8.43
2022-07-25T03:46:22.630Z,7.85
2022-07-25T03:48:40.159Z,7.80
2022-07-25T03:51:01.160Z,7.50
2022-07-25T03:53:24.657Z,8.07
2022-07-25T03:55:42.020Z,8.60
2022-07-25T03:57:59.448Z,8.18
2022-07-25T04:00:18.130Z,8.38
2022-07-25T04:02:35.261Z,7.80
2022-07-25T04:04:53.592Z,7.93
2022-07-25T04:07:10.727Z,8.07
2022-07-25T04:09:28.136Z,8.00
2022-07-25T04:11:49.356Z,8.05
2022-07-25T04:14:08.734Z,8.27
2022-07-25T04:16:27.772Z,7.40
2022-07-25T04:18:45.363Z,8.20
2022-07-25T04:21:02.644Z,8.68
2022-07-25T04:23:19.746Z,7.97
2022-07-25T04:25:36.702Z,8.35
2022-07-25T04:27:54.760Z,7.57
2022-07-25T04:30:13.016Z,8.60
2022-07-25T04:32:41.833Z,8.52
2022-07-25T04:34:59.001Z,8.10
2022-07-25T04:37:16.274Z,9.25
2022-07-25T04:39:33.462Z,8.40
2022-07-25T04:41:50.677Z,8.15
2022-07-25T04:44:08.553Z,8.32
2022-07-25T04:46:26.398Z,8.07
2022-07-25T04:48:46.201Z,8.48
2022-07-25T04:51:03.450Z,7.82
2022-07-25T04:53:20.431Z,8.25
2022-07-25T04:55:37.755Z,7.90
2022-07-25T04:57:55.780Z,8.70
2022-07-25T05:00:14.891Z,7.93
2022-07-25T05:02:34.369Z,8.13
2022-07-25T05:04:52.188Z,8.02
2022-07-25T05:07:09.410Z,8.25
2022-07-25T05:09:27.567Z,8.70
2022-07-25T05:11:48.722Z,8.25
2022-07-25T05:14:09.069Z,8.63
2022-07-25T05:16:26.470Z,9.07
2022-07-25T05:18:44.638Z,8.38
2022-07-25T05:21:02.645Z,8.10
2022-07-25T05:23:21.004Z,8.88
2022-07-25T05:25:39.053Z,9.27
2022-07-25T05:27:56.411Z,8.80
2022-07-25T05:30:13.506Z,8.05
2022-07-25T05:32:30.647Z,8.70
2022-07-25T05:34:48.123Z,8.25
2022-07-25T05:37:06.497Z,8.13
2022-07-25T05:39:23.741Z,8.30
2022-07-25T05:41:40.895Z,8.45
2022-07-25T05:43:59.032Z,8.57
2022-07-25T05:46:16.165Z,8.25
2022-07-25T05:48:33.417Z,8.00
2022-07-25T05:50:50.432Z,8.07
2022-07-25T05:53:07.733Z,7.55
2022-07-25T05:55:25.149Z,7.85
2022-07-25T05:57:43.171Z,8.43
2022-07-25T06:00:00.187Z,8.15
2022-07-25T06:02:18.033Z,8.13
2022-07-25T06:04:36.153Z,8.38
2022-07-25T06:06:53.588Z,8.60
2022-07-25T06:09:10.966Z,8.18
2022-07-25T06:11:28.293Z,8.18
2022-07-25T06:13:47.924Z,8.13
2022-07-25T06:16:09.626Z,8.13
2022-07-25T06:18:27.554Z,8.30
2022-07-25T06:20:44.475Z,8.40
2022-07-25T06:23:02.532Z,8.18
2022-07-25T06:25:19.525Z,7.90
2022-07-25T06:27:37.941Z,8.50
2022-07-25T06:29:57.149Z,7.60
2022-07-25T06:32:14.136Z,8.05
2022-07-25T06:34:31.181Z,8.32
2022-07-25T06:36:48.826Z,7.47
2022-07-25T06:39:05.888Z,8.23
2022-07-25T06:41:23.124Z,7.57
2022-07-25T06:43:40.022Z,7.97
2022-07-25T06:45:57.332Z,8.73
2022-07-25T06:48:14.663Z,7.63
2022-07-25T06:50:31.934Z,7.30
2022-07-25T06:52:49.095Z,7.18
2022-07-25T06:55:06.431Z,7.53
2022-07-25T06:57:23.814Z,6.97
2022-07-25T06:59:40.818Z,7.35
2022-07-25T07:01:58.089Z,7.78
2022-07-25T07:04:15.802Z,7.47
2022-07-25T07:06:33.091Z,7.68
2022-07-25T07:08:50.340Z,7.80
2022-07-25T07:11:07.715Z,7.63
2022-07-25T07:13:24.813Z,7.57
2022-07-25T07:15:41.942Z,7.05
2022-07-25T07:18:00.155Z,7.60
2022-07-25T07:20:22.431Z,7.72
2022-07-25T07:22:41.168Z,7.57
2022-07-25T07:24:59.702Z,7.15
2022-07-25T07:27:19.194Z,7.65
2022-07-25T07:29:36.619Z,7.65
2022-07-25T07:31:55.556Z,7.40
2022-07-25T07:34:14.392Z,7.60
2022-07-25T07:36:34.680Z,7.70
2022-07-25T07:38:53.008Z,7.95
2022-07-25T07:41:10.072Z,7.75
2022-07-25T07:43:29.873Z,7.85
2022-07-25T07:45:47.788Z,8.02
2022-07-25T07:48:06.063Z,7.70
2022-07-25T07:50:24.098Z,7.72
2022-07-25T07:52:41.131Z,7.82
2022-07-25T07:54:59.591Z,7.68
2022-07-25T07:57:17.311Z,7.65
2022-07-25T07:59:34.715Z,7.47
2022-07-25T08:01:52.000Z,8.05
2022-07-25T08:04:09.053Z,7.78
2022-07-25T08:06:26.733Z,8.02
2022-07-25T08:08:46.097Z,8.50
2022-07-25T08:11:03.590Z,7.80
2022-07-25T08:13:20.868Z,7.88
2022-07-25T08:15:38.078Z,8.05
2022-07-25T08:17:55.397Z,8.18
2022-07-25T08:20:35.693Z,8.02
2022-07-25T08:22:54.442Z,7.90
2022-07-25T08:25:13.885Z,8.45
2022-07-25T08:27:32.776Z,8.32
2022-07-25T08:29:49.962Z,8.10
2022-07-25T08:32:08.133Z,8.82
2022-07-25T08:34:25.546Z,8.20
2022-07-25T08:36:44.608Z,8.20
2022-07-25T08:39:02.881Z,8.05
2022-07-25T08:41:20.491Z,8.10
2022-07-25T08:43:42.269Z,8.35
2022-07-25T08:45:59.281Z,8.13
2022-07-25T08:48:16.706Z,8.23
2022-07-25T08:50:33.655Z,8.00
2022-07-25T08:53:00.707Z,8.20
2022-07-25T08:55:27.366Z,8.00
2022-07-25T08:57:44.849Z,7.82
2022-07-25T09:00:04.106Z,7.85
2022-07-25T09:02:21.515Z,7.70
2022-07-25T09:04:40.063Z,8.15
2022-07-25T09:06:58.394Z,7.32
2022-07-25T09:09:18.201Z,7.43
2022-07-25T09:11:36.084Z,8.30
2022-07-25T09:13:53.468Z,8.13
2022-07-25T09:16:10.851Z,7.90
2022-07-25T09:18:28.013Z,7.28
2022-07-25T09:20:45.431Z,7.85
2022-07-25T09:23:03.720Z,7.95
2022-07-25T09:25:22.521Z,7.93
2022-07-25T09:27:41.367Z,7.72
2022-07-25T09:29:58.732Z,7.68
2022-07-25T09:32:15.865Z,7.68
2022-07-25T09:34:34.206Z,7.47
2022-07-25T09:36:52.385Z,7.30
2022-07-25T09:39:09.694Z,7.35
2022-07-25T09:41:27.294Z,7.38
2022-07-25T09:43:44.691Z,7.35
2022-07-25T09:46:01.773Z,7.38
2022-07-25T09:48:18.784Z,7.75
2022-07-25T09:50:36.176Z,7.22
2022-07-25T09:52:54.530Z,7.40
2022-07-25T09:55:12.447Z,7.45
2022-07-25T09:57:29.789Z,7.60
2022-07-25T09:59:46.877Z,8.50
2022-07-25T10:02:05.244Z,7.13
2022-07-25T10:04:22.316Z,7.28
2022-07-25T10:06:39.485Z,7.57
2022-07-25T10:08:56.523Z,7.75
2022-07-25T10:11:13.658Z,7.32
2022-07-25T10:13:30.873Z,7.38
2022-07-25T10:15:49.260Z,7.22
2022-07-25T10:18:08.682Z,7.70
2022-07-25T10:20:25.655Z,7.75
2022-07-25T10:22:58.580Z,7.50
2022-07-25T10:25:16.049Z,7.85
2022-07-25T10:27:33.159Z,7.40
2022-07-25T10:29:50.270Z,7.70
2022-07-25T10:32:07.408Z,7.20
2022-07-25T10:34:24.544Z,7.25
2022-07-25T10:36:41.781Z,7.63
2022-07-25T10:38:59.121Z,7.68
2022-07-25T10:41:16.227Z,7.57
2022-07-25T10:43:33.330Z,7.70
2022-07-25T10:45:50.455Z,7.22
2022-07-25T10:48:08.497Z,7.60
2022-07-25T10:50:53.322Z,7.40
2022-07-25T10:53:02.535Z,7.30
2022-07-25T10:55:19.571Z,6.53
2022-07-25T10:57:54.958Z,6.50
2022-07-25T11:00:16.613Z,5.95
2022-07-25T11:02:34.068Z,5.68
2022-07-25T11:04:51.470Z,6.13
2022-07-25T11:07:08.479Z,6.00
2022-07-25T11:09:27.554Z,6.70
2022-07-25T11:11:47.844Z,7.03
2022-07-25T11:14:04.899Z,7.68
2022-07-25T11:16:23.315Z,7.90
2022-07-25T11:18:40.759Z,7.38
2022-07-25T11:21:02.897Z,7.03
2022-07-25T11:23:23.530Z,7.22
2022-07-25T11:25:40.660Z,7.20
2022-07-25T11:27:57.716Z,7.20
2022-07-25T11:30:14.797Z,6.88
2022-07-25T11:32:32.637Z,6.93
2022-07-25T11:34:53.201Z,6.82
2022-07-25T11:37:10.461Z,7.05
2022-07-25T11:39:27.792Z,6.68
2022-07-25T11:41:45.290Z,6.93
2022-07-25T11:44:03.612Z,7.20
2022-07-25T11:46:20.623Z,7.03
2022-07-25T11:48:38.020Z,6.38
2022-07-25T11:50:55.052Z,6.90
2022-07-25T11:53:12.343Z,7.28
2022-07-25T11:55:30.552Z,7.22
2022-07-25T11:57:47.567Z,6.90
2022-07-25T12:00:04.815Z,6.55
2022-07-25T12:02:23.352Z,6.65
2022-07-25T12:04:40.725Z,7.00
2022-07-25T12:06:59.081Z,6.68
2022-07-25T12:09:18.951Z,6.63
2022-07-25T12:11:36.836Z,6.43
2022-07-25T12:13:54.251Z,6.95
2022-07-25T12:16:11.575Z,6.95
2022-07-25T12:18:28.527Z,6.80
2022-07-25T12:20:45.891Z,6.85
2022-07-25T12:23:02.842Z,6.60
2022-07-25T12:25:19.771Z,7.03
2022-07-25T12:27:36.859Z,6.90
2022-07-25T12:29:54.176Z,7.07
2022-07-25T12:32:11.558Z,7.30
2022-07-25T12:34:28.946Z,7.30
2022-07-25T12:36:46.244Z,7.20
2022-07-25T12:39:03.608Z,7.18
2022-07-25T12:41:21.376Z,7.05
2022-07-25T12:46:13.689Z,7.90
2022-07-25T12:48:31.068Z,8.40
2022-07-25T12:50:48.041Z,8.23
2022-07-25T12:53:05.519Z,7.95
2022-07-25T12:55:22.566Z,6.97
2022-07-25T12:57:39.625Z,7.60
2022-07-25T12:59:56.897Z,7.15
2022-07-25T13:02:14.917Z,7.40
2022-07-25T13:04:35.175Z,6.68
2022-07-25T13:06:52.178Z,7.18
2022-07-25T13:09:09.946Z,6.93
2022-07-25T13:11:29.083Z,6.90
2022-07-25T13:13:47.410Z,6.25
2022-07-25T13:16:04.779Z,6.07
2022-07-25T13:18:22.031Z,6.72
2022-07-25T13:20:41.289Z,6.30
2022-07-25T13:22:58.211Z,6.97
2022-07-25T13:25:15.087Z,6.80
2022-07-25T13:27:32.402Z,6.63
2022-07-25T13:29:49.927Z,6.47
2022-07-25T13:32:08.310Z,7.00
2022-07-25T13:34:25.567Z,6.70
2022-07-25T13:36:42.827Z,7.05
2022-07-25T13:39:00.233Z,7.32
2022-07-25T13:41:17.297Z,7.20
2022-07-25T13:43:34.874Z,7.07
2022-07-25T13:45:52.047Z,7.28
2022-07-25T13:50:46.715Z,6.82
2022-07-25T13:53:05.179Z,7.15
2022-07-25T13:55:22.468Z,7.03
2022-07-25T13:57:39.868Z,7.18
2022-07-25T13:59:57.007Z,7.20
2022-07-25T14:02:14.154Z,7.82
2022-07-25T14:04:34.885Z,7.68
2022-07-25T14:06:51.943Z,8.02
2022-07-25T14:09:10.638Z,7.70
2022-07-25T14:11:30.733Z,7.25
2022-07-25T14:13:48.898Z,7.05
2022-07-25T14:16:10.303Z,6.63
2022-07-25T14:18:27.153Z,6.50
2022-07-25T14:20:44.876Z,6.63
2022-07-25T14:23:01.924Z,6.55
2022-07-25T14:25:19.280Z,13.18
2022-07-25T14:27:36.780Z,7.28
2022-07-25T14:29:54.143Z,7.72
2022-07-25T14:32:11.728Z,6.97
2022-07-25T14:34:29.075Z,7.45
2022-07-25T14:36:47.942Z,7.50
2022-07-25T14:39:05.842Z,7.63
2022-07-25T14:41:24.534Z,7.68
2022-07-25T14:43:42.637Z,7.68
2022-07-25T14:46:00.016Z,7.45
2022-07-25T14:48:17.376Z,7.43
2022-07-25T14:50:35.642Z,8.00
2022-07-25T14:52:52.737Z,7.05
2022-07-25T14:55:14.000Z,7.40
2022-07-25T14:57:32.381Z,7.07
2022-07-25T14:59:51.853Z,7.63
2022-07-25T15:02:09.261Z,6.80
2022-07-25T15:04:26.624Z,7.25
2022-07-25T15:06:43.748Z,6.85
2022-07-25T15:09:01.662Z,6.85
2022-07-25T15:11:19.741Z,7.10
2022-07-25T15:13:38.997Z,6.25
2022-07-25T15:15:56.281Z,6.60
2022-07-25T15:18:14.108Z,6.55
2022-07-25T15:20:31.552Z,5.93
2022-07-25T15:22:48.815Z,5.97
2022-07-25T15:25:45.034Z,6.05
2022-07-25T15:27:43.446Z,6.40
2022-07-25T15:30:00.704Z,5.40
2022-07-25T15:32:17.945Z,5.43
2022-07-25T15:34:35.073Z,5.28
2022-07-25T15:36:53.072Z,5.60
2022-07-25T15:39:10.853Z,5.22
2022-07-25T15:41:27.950Z,5.28
2022-07-25T15:43:45.469Z,5.10
2022-07-25T15:46:04.053Z,4.60
2022-07-25T15:48:22.040Z,4.93
2022-07-25T15:50:40.040Z,4.70
2022-07-25T15:52:57.511Z,4.22
2022-07-25T15:55:14.572Z,4.50
2022-07-25T15:57:31.977Z,4.00
2022-07-25T15:59:51.217Z,3.85
2022-07-25T16:02:08.250Z,3.72
2022-07-25T16:04:25.401Z,3.90
2022-07-25T16:06:42.458Z,3.72
2022-07-25T16:09:00.456Z,3.90
2022-07-25T16:11:18.082Z,3.38
2022-07-25T16:13:35.343Z,3.17
2022-07-25T16:15:53.709Z,3.38
2022-07-25T16:18:12.006Z,3.00
2022-07-25T16:20:29.343Z,3.10
2022-07-25T16:22:46.587Z,2.92
2022-07-25T16:25:03.684Z,2.58
2022-07-25T16:27:20.971Z,2.60
2022-07-25T16:29:38.276Z,2.55
2022-07-25T16:31:55.691Z,2.45
2022-07-25T16:34:12.776Z,2.45
2022-07-25T16:36:29.860Z,2.60
2022-07-25T16:38:46.814Z,2.80
2022-07-25T16:41:04.067Z,2.58
2022-07-25T16:43:21.102Z,2.20
2022-07-25T16:45:38.107Z,2.38
2022-07-25T16:47:55.164Z,2.28
2022-07-25T16:50:12.279Z,2.30
2022-07-25T16:52:29.338Z,2.78
2022-07-25T16:54:46.432Z,2.10
2022-07-25T16:57:03.402Z,2.40
2022-07-25T16:59:20.688Z,2.38
2022-07-25T17:01:38.742Z,1.70
2022-07-25T17:03:55.874Z,1.92
2022-07-25T17:06:13.848Z,1.95
2022-07-25T17:08:31.198Z,2.20
2022-07-25T17:10:49.447Z,1.83
2022-07-25T17:13:06.486Z,2.10
2022-07-25T17:15:24.542Z,1.80
2022-07-25T17:17:41.491Z,1.92
2022-07-25T17:20:00.243Z,1.88
2022-07-25T17:22:17.804Z,1.90
2022-07-25T17:24:34.870Z,2.00
2022-07-25T17:26:51.795Z,1.95
2022-07-25T17:29:10.587Z,1.75
2022-07-25T17:31:27.826Z,1.85
2022-07-25T17:33:45.263Z,1.75
2022-07-25T17:36:02.293Z,1.90
2022-07-25T17:38:25.355Z,1.90
2022-07-25T17:43:01.308Z,1.83
2022-07-25T17:45:19.551Z,1.83
2022-07-25T17:47:36.473Z,1.65
2022-07-25T17:49:53.541Z,1.50
2022-07-25T17:52:10.474Z,2.20
2022-07-25T17:54:27.767Z,1.70
2022-07-25T17:56:45.020Z,1.80
2022-07-25T17:59:02.081Z,1.70
2022-07-25T18:01:19.527Z,1.88
2022-07-25T18:03:39.285Z,1.42
2022-07-25T18:05:56.259Z,1.80
2022-07-25T18:08:13.250Z,2.00
2022-07-25T18:10:30.543Z,2.10
2022-07-25T18:12:47.881Z,2.35
2022-07-25T18:15:05.177Z,2.30
2022-07-25T18:17:23.240Z,1.60
2022-07-25T18:19:40.559Z,1.70
2022-07-25T18:21:57.938Z,1.60
2022-07-25T18:24:15.265Z,1.50
2022-07-25T18:26:32.371Z,1.45
2022-07-25T18:28:49.678Z,1.52
2022-07-25T18:31:12.943Z,1.65
2022-07-25T18:33:29.881Z,1.43
2022-07-25T18:35:46.879Z,1.50
2022-07-25T18:38:04.139Z,1.55
2022-07-25T18:40:21.495Z,1.60
2022-07-25T18:42:38.491Z,1.58
2022-07-25T18:44:56.636Z,1.60
2022-07-25T18:47:14.082Z,1.83
2022-07-25T18:49:31.376Z,1.50
2022-07-25T18:51:48.703Z,1.80
2022-07-25T18:54:06.247Z,1.73
2022-07-25T18:56:23.525Z,1.92
2022-07-25T18:58:40.903Z,2.00
2022-07-25T19:00:57.945Z,2.03
2022-07-25T19:03:14.857Z,1.70
2022-07-25T19:05:32.367Z,1.80
2022-07-25T19:07:49.352Z,1.50
2022-07-25T19:10:06.702Z,1.70
2022-07-25T19:12:23.699Z,1.90
2022-07-25T19:14:41.231Z,1.48
2022-07-25T19:16:58.314Z,1.70
2022-07-25T19:19:15.545Z,2.10
2022-07-25T19:21:32.636Z,1.90
2022-07-25T19:23:51.238Z,1.70
2022-07-25T19:26:11.644Z,1.70
2022-07-25T19:28:28.815Z,1.80
2022-07-25T19:30:46.225Z,5.07
2022-07-25T19:33:04.947Z,4.47
2022-07-25T19:35:26.221Z,6.45
2022-07-25T19:37:43.489Z,2.85
2022-07-25T19:40:00.833Z,2.28
2022-07-25T19:42:18.093Z,2.10
2022-07-25T19:44:35.090Z,1.90
2022-07-25T19:46:52.511Z,1.70
2022-07-25T19:49:09.824Z,2.00
2022-07-25T19:51:27.202Z,2.05
2022-07-25T19:53:44.478Z,1.92
2022-07-25T19:56:02.125Z,1.77
2022-07-25T19:58:19.397Z,1.83
2022-07-25T20:00:38.392Z,2.03
2022-07-25T20:02:55.712Z,1.80
2022-07-25T20:05:14.197Z,2.10
2022-07-25T20:07:31.168Z,2.03
2022-07-25T20:09:48.116Z,3.15
2022-07-25T20:12:06.402Z,3.35
2022-07-25T20:14:23.458Z,2.35
2022-07-25T20:16:41.567Z,2.30
2022-07-25T20:18:58.742Z,1.90
2022-07-25T20:21:15.835Z,1.80
2022-07-25T20:23:32.916Z,1.90
2022-07-25T20:25:49.993Z,2.00
2022-07-25T20:28:07.104Z,1.92
2022-07-25T20:30:24.445Z,1.88
2022-07-25T20:32:41.529Z,1.80
2022-07-25T20:34:58.893Z,1.88
2022-07-25T20:37:15.891Z,2.28
2022-07-25T20:39:33.190Z,2.17
2022-07-25T20:41:51.060Z,1.90
2022-07-25T20:44:09.366Z,1.80
2022-07-25T20:46:26.420Z,1.75
2022-07-25T20:48:44.015Z,1.80
2022-07-25T20:51:01.364Z,1.83
2022-07-25T20:53:18.729Z,1.70
2022-07-25T20:55:35.846Z,1.90
2022-07-25T20:57:52.904Z,1.77
2022-07-25T21:00:10.228Z,1.92
2022-07-25T21:02:27.652Z,1.98
2022-07-25T21:04:44.947Z,2.10
2022-07-25T21:07:03.334Z,2.00
2022-07-25T21:09:23.184Z,1.85
2022-07-25T21:11:40.409Z,1.90
2022-07-25T21:13:57.565Z,1.92
2022-07-25T21:16:15.197Z,2.00
2022-07-25T21:18:32.445Z,2.28
2022-07-25T21:20:49.533Z,2.13
2022-07-25T21:23:06.612Z,2.40
2022-07-25T21:25:24.233Z,2.20
2022-07-25T21:27:42.276Z,2.15
2022-07-25T21:29:59.372Z,2.33
2022-07-25T21:32:16.654Z,2.15
2022-07-25T21:34:33.981Z,2.15
2022-07-25T21:36:50.968Z,2.45
2022-07-25T21:39:08.308Z,2.50
2022-07-25T21:41:25.472Z,2.40
2022-07-25T21:43:42.565Z,2.20
2022-07-25T21:45:59.595Z,2.63
2022-07-25T21:48:16.930Z,2.47
2022-07-25T21:50:42.225Z,2.80
2022-07-25T21:53:01.355Z,2.80
2022-07-25T21:55:18.393Z,3.17
2022-07-25T21:57:36.420Z,4.00
2022-07-25T21:59:54.746Z,4.10
2022-07-25T22:02:11.788Z,3.75
2022-07-25T22:04:29.119Z,3.53
2022-07-25T22:06:46.202Z,3.55
2022-07-25T22:09:03.232Z,3.00
2022-07-25T22:11:42.482Z,2.30
2022-07-25T22:13:58.116Z,2.78
2022-07-25T22:16:15.675Z,2.58
2022-07-25T22:18:32.782Z,2.38
2022-07-25T22:20:51.019Z,2.28
2022-07-25T22:23:07.940Z,2.38
2022-07-25T22:25:24.911Z,2.17
2022-07-25T22:27:42.114Z,2.13
2022-07-25T22:29:59.370Z,2.30
2022-07-25T22:32:16.709Z,2.20
2022-07-25T22:34:33.688Z,2.30
2022-07-25T22:36:50.811Z,2.30
2022-07-25T22:39:08.325Z,2.22
2022-07-25T22:41:25.669Z,2.03
2022-07-25T22:43:48.667Z,2.40
2022-07-25T22:46:16.554Z,2.20
2022-07-25T22:48:33.941Z,2.17
2022-07-25T22:50:51.352Z,2.38
2022-07-25T22:53:08.298Z,2.20
2022-07-25T22:55:25.299Z,2.45
2022-07-25T22:57:42.451Z,2.30
2022-07-25T23:00:00.377Z,2.33
2022-07-25T23:02:17.579Z,2.25
2022-07-25T23:04:34.650Z,2.35
2022-07-25T23:06:52.936Z,2.30
2022-07-25T23:09:10.579Z,2.15
2022-07-25T23:11:28.077Z,2.33
2022-07-25T23:13:45.410Z,2.40
2022-07-25T23:16:03.391Z,2.40
2022-07-25T23:18:21.599Z,2.40
2022-07-25T23:20:38.575Z,1.95
2022-07-25T23:22:56.931Z,2.40
2022-07-25T23:25:14.007Z,2.33
2022-07-25T23:27:33.285Z,2.10
2022-07-25T23:29:52.094Z,2.38
2022-07-25T23:32:09.534Z,2.13
2022-07-25T23:34:26.505Z,2.28
2022-07-25T23:36:43.481Z,2.17
2022-07-25T23:39:02.650Z,2.42
2022-07-25T23:41:20.747Z,2.20
2022-07-25T23:43:57.385Z,2.00
2022-07-25T23:46:16.373Z,2.20
2022-07-25T23:48:35.537Z,2.35
2022-07-25T23:50:52.603Z,2.10
2022-07-25T23:53:09.552Z,2.42
2022-07-25T23:55:27.643Z,2.53
2022-07-25T23:57:45.060Z,2.35
